sensor_id;sensor_type;location;lat;lon;timestamp;temperature;humidity
11838;DHT22;5978;51.020;6.764;2023-03-12T00:00:39;3.10;99.90
11838;DHT22;5978;51.020;6.764;2023-03-12T00:03:05;2.90;99.90
11838;DHT22;5978;51.020;6.764;2023-03-12T00:05:31;2.90;99.90
11838;DHT22;5978;51.020;6.764;2023-03-12T00:07:57;2.80;99.90
11838;DHT22;5978;51.020;6.764;2023-03-12T00:10:28;2.80;99.90
11838;DHT22;5978;51.020;6.764;2023-03-12T00:12:54;2.80;99.90
11838;DHT22;5978;51.020;6.764;2023-03-12T00:15:20;2.80;99.90
11838;DHT22;5978;51.020;6.764;2023-03-12T00:17:45;2.90;99.90
11838;DHT22;5978;51.020;6.764;2023-03-12T00:20:11;2.90;99.90
11838;DHT22;5978;51.020;6.764;2023-03-12T00:22:37;2.90;99.90
11838;DHT22;5978;51.020;6.764;2023-03-12T00:25:05;2.90;99.90
11838;DHT22;5978;51.020;6.764;2023-03-12T00:27:31;2.80;99.90
11838;DHT22;5978;51.020;6.764;2023-03-12T00:29:57;2.70;99.90
11838;DHT22;5978;51.020;6.764;2023-03-12T00:32:22;2.80;99.90
11838;DHT22;5978;51.020;6.764;2023-03-12T00:34:52;2.80;99.90
11838;DHT22;5978;51.020;6.764;2023-03-12T00:37:18;2.70;99.90
11838;DHT22;5978;51.020;6.764;2023-03-12T00:39:43;2.70;99.90
11838;DHT22;5978;51.020;6.764;2023-03-12T00:42:09;2.70;99.90
11838;DHT22;5978;51.020;6.764;2023-03-12T00:44:35;2.60;99.90
11838;DHT22;5978;51.020;6.764;2023-03-12T00:47:00;2.60;99.90
11838;DHT22;5978;51.020;6.764;2023-03-12T00:49:26;2.70;99.90
11838;DHT22;5978;51.020;6.764;2023-03-12T00:51:51;2.80;99.90
11838;DHT22;5978;51.020;6.764;2023-03-12T00:54:19;2.70;99.90
11838;DHT22;5978;51.020;6.764;2023-03-12T00:56:44;2.70;99.90
11838;DHT22;5978;51.020;6.764;2023-03-12T00:59:14;2.70;99.90
11838;DHT22;5978;51.020;6.764;2023-03-12T01:01:40;2.60;99.90
11838;DHT22;5978;51.020;6.764;2023-03-12T01:04:06;2.60;99.90
11838;DHT22;5978;51.020;6.764;2023-03-12T01:06:32;2.50;99.90
11838;DHT22;5978;51.020;6.764;2023-03-12T01:08:57;2.60;99.90
11838;DHT22;5978;51.020;6.764;2023-03-12T01:11:24;2.50;99.90
11838;DHT22;5978;51.020;6.764;2023-03-12T01:13:49;2.60;99.90
11838;DHT22;5978;51.020;6.764;2023-03-12T01:16:15;2.70;99.90
11838;DHT22;5978;51.020;6.764;2023-03-12T01:18:41;2.80;99.90
11838;DHT22;5978;51.020;6.764;2023-03-12T01:21:06;2.80;99.90
11838;DHT22;5978;51.020;6.764;2023-03-12T01:23:32;2.70;99.90
11838;DHT22;5978;51.020;6.764;2023-03-12T01:25:57;2.70;99.90
11838;DHT22;5978;51.020;6.764;2023-03-12T01:28:24;2.60;99.90
11838;DHT22;5978;51.020;6.764;2023-03-12T01:30:51;2.60;99.90
11838;DHT22;5978;51.020;6.764;2023-03-12T01:33:16;2.60;99.90
11838;DHT22;5978;51.020;6.764;2023-03-12T01:35:43;2.60;99.90
11838;DHT22;5978;51.020;6.764;2023-03-12T01:38:13;2.60;99.90
11838;DHT22;5978;51.020;6.764;2023-03-12T01:40:40;2.60;99.90
11838;DHT22;5978;51.020;6.764;2023-03-12T01:43:33;2.60;99.90
11838;DHT22;5978;51.020;6.764;2023-03-12T01:48:35;2.50;99.90
11838;DHT22;5978;51.020;6.764;2023-03-12T01:51:02;2.60;99.90
11838;DHT22;5978;51.020;6.764;2023-03-12T01:53:29;2.60;99.90
11838;DHT22;5978;51.020;6.764;2023-03-12T01:55:57;2.70;99.90
11838;DHT22;5978;51.020;6.764;2023-03-12T01:58:26;2.60;99.90
11838;DHT22;5978;51.020;6.764;2023-03-12T02:00:53;2.60;99.90
11838;DHT22;5978;51.020;6.764;2023-03-12T02:03:19;2.70;99.90
11838;DHT22;5978;51.020;6.764;2023-03-12T02:05:53;2.70;99.90
11838;DHT22;5978;51.020;6.764;2023-03-12T02:08:19;2.60;99.90
11838;DHT22;5978;51.020;6.764;2023-03-12T02:10:47;2.60;99.90
11838;DHT22;5978;51.020;6.764;2023-03-12T02:13:13;2.70;99.90
11838;DHT22;5978;51.020;6.764;2023-03-12T02:15:38;2.80;99.90
11838;DHT22;5978;51.020;6.764;2023-03-12T02:18:07;2.80;99.90
11838;DHT22;5978;51.020;6.764;2023-03-12T02:21:23;2.70;99.90
11838;DHT22;5978;51.020;6.764;2023-03-12T02:23:46;2.80;99.90
11838;DHT22;5978;51.020;6.764;2023-03-12T02:26:16;2.90;99.90
11838;DHT22;5978;51.020;6.764;2023-03-12T02:28:43;3.00;99.90
11838;DHT22;5978;51.020;6.764;2023-03-12T02:31:13;3.00;99.90
11838;DHT22;5978;51.020;6.764;2023-03-12T02:33:40;3.00;99.90
11838;DHT22;5978;51.020;6.764;2023-03-12T02:36:06;3.00;99.90
11838;DHT22;5978;51.020;6.764;2023-03-12T02:38:49;3.00;99.90
11838;DHT22;5978;51.020;6.764;2023-03-12T02:43:46;3.00;99.90
11838;DHT22;5978;51.020;6.764;2023-03-12T02:46:13;3.00;99.90
11838;DHT22;5978;51.020;6.764;2023-03-12T02:48:39;3.00;99.90
11838;DHT22;5978;51.020;6.764;2023-03-12T02:51:08;2.90;99.90
11838;DHT22;5978;51.020;6.764;2023-03-12T02:53:34;2.90;99.90
11838;DHT22;5978;51.020;6.764;2023-03-12T02:56:00;2.90;99.90
11838;DHT22;5978;51.020;6.764;2023-03-12T02:58:25;2.90;99.90
11838;DHT22;5978;51.020;6.764;2023-03-12T03:00:51;2.90;99.90
11838;DHT22;5978;51.020;6.764;2023-03-12T03:03:17;2.90;99.90
11838;DHT22;5978;51.020;6.764;2023-03-12T03:05:42;3.00;99.90
11838;DHT22;5978;51.020;6.764;2023-03-12T03:08:08;3.00;99.90
11838;DHT22;5978;51.020;6.764;2023-03-12T03:10:34;3.00;99.90
11838;DHT22;5978;51.020;6.764;2023-03-12T03:12:59;3.10;99.90
11838;DHT22;5978;51.020;6.764;2023-03-12T03:15:25;3.00;99.90
11838;DHT22;5978;51.020;6.764;2023-03-12T03:17:51;3.00;99.90
11838;DHT22;5978;51.020;6.764;2023-03-12T03:20:17;3.00;99.90
11838;DHT22;5978;51.020;6.764;2023-03-12T03:22:42;3.10;99.90
11838;DHT22;5978;51.020;6.764;2023-03-12T03:25:09;3.10;99.90
11838;DHT22;5978;51.020;6.764;2023-03-12T03:27:35;3.10;99.90
11838;DHT22;5978;51.020;6.764;2023-03-12T03:30:01;2.90;99.90
11838;DHT22;5978;51.020;6.764;2023-03-12T03:32:27;3.00;99.90
11838;DHT22;5978;51.020;6.764;2023-03-12T03:34:52;3.00;99.90
11838;DHT22;5978;51.020;6.764;2023-03-12T03:37:18;3.00;99.90
11838;DHT22;5978;51.020;6.764;2023-03-12T03:39:43;3.00;99.90
11838;DHT22;5978;51.020;6.764;2023-03-12T03:42:09;3.00;99.90
11838;DHT22;5978;51.020;6.764;2023-03-12T03:44:34;3.00;99.90
11838;DHT22;5978;51.020;6.764;2023-03-12T03:47:00;3.00;99.90
11838;DHT22;5978;51.020;6.764;2023-03-12T03:49:26;3.00;99.90
11838;DHT22;5978;51.020;6.764;2023-03-12T03:51:52;3.10;99.90
11838;DHT22;5978;51.020;6.764;2023-03-12T03:54:18;3.20;99.90
11838;DHT22;5978;51.020;6.764;2023-03-12T03:56:44;3.20;99.90
11838;DHT22;5978;51.020;6.764;2023-03-12T03:59:09;3.20;99.90
11838;DHT22;5978;51.020;6.764;2023-03-12T04:01:35;3.20;99.90
11838;DHT22;5978;51.020;6.764;2023-03-12T04:04:01;3.20;99.90
11838;DHT22;5978;51.020;6.764;2023-03-12T04:06:28;3.10;99.90
11838;DHT22;5978;51.020;6.764;2023-03-12T04:08:55;3.10;99.90
11838;DHT22;5978;51.020;6.764;2023-03-12T04:11:21;3.10;99.90
11838;DHT22;5978;51.020;6.764;2023-03-12T04:13:47;3.10;99.90
11838;DHT22;5978;51.020;6.764;2023-03-12T04:16:13;3.20;99.90
11838;DHT22;5978;51.020;6.764;2023-03-12T04:18:39;3.30;99.90
11838;DHT22;5978;51.020;6.764;2023-03-12T04:21:08;3.30;99.90
11838;DHT22;5978;51.020;6.764;2023-03-12T04:23:34;3.20;99.90
11838;DHT22;5978;51.020;6.764;2023-03-12T04:26:01;3.20;99.90
11838;DHT22;5978;51.020;6.764;2023-03-12T04:28:26;3.20;99.90
11838;DHT22;5978;51.020;6.764;2023-03-12T04:30:57;3.20;99.90
11838;DHT22;5978;51.020;6.764;2023-03-12T04:33:31;3.30;99.90
11838;DHT22;5978;51.020;6.764;2023-03-12T04:35:57;3.30;99.90
11838;DHT22;5978;51.020;6.764;2023-03-12T04:38:24;3.30;99.90
11838;DHT22;5978;51.020;6.764;2023-03-12T04:41:04;3.30;99.90
11838;DHT22;5978;51.020;6.764;2023-03-12T04:43:30;3.30;99.90
11838;DHT22;5978;51.020;6.764;2023-03-12T04:45:56;3.20;99.90
11838;DHT22;5978;51.020;6.764;2023-03-12T04:48:23;3.20;99.90
11838;DHT22;5978;51.020;6.764;2023-03-12T04:50:49;3.20;99.90
11838;DHT22;5978;51.020;6.764;2023-03-12T04:53:14;3.20;99.90
11838;DHT22;5978;51.020;6.764;2023-03-12T04:55:41;3.10;99.90
11838;DHT22;5978;51.020;6.764;2023-03-12T04:58:06;3.10;99.90
11838;DHT22;5978;51.020;6.764;2023-03-12T05:00:32;3.10;99.90
11838;DHT22;5978;51.020;6.764;2023-03-12T05:02:58;3.10;99.90
11838;DHT22;5978;51.020;6.764;2023-03-12T05:05:23;3.00;99.90
11838;DHT22;5978;51.020;6.764;2023-03-12T05:07:49;3.00;99.90
11838;DHT22;5978;51.020;6.764;2023-03-12T05:10:15;2.90;99.90
11838;DHT22;5978;51.020;6.764;2023-03-12T05:12:40;2.80;99.90
11838;DHT22;5978;51.020;6.764;2023-03-12T05:15:06;2.80;99.90
11838;DHT22;5978;51.020;6.764;2023-03-12T05:17:32;2.80;99.90
11838;DHT22;5978;51.020;6.764;2023-03-12T05:19:57;2.80;99.90
11838;DHT22;5978;51.020;6.764;2023-03-12T05:22:23;2.70;99.90
11838;DHT22;5978;51.020;6.764;2023-03-12T05:24:49;2.70;99.90
11838;DHT22;5978;51.020;6.764;2023-03-12T05:27:14;2.70;99.90
11838;DHT22;5978;51.020;6.764;2023-03-12T05:29:40;2.70;99.90
11838;DHT22;5978;51.020;6.764;2023-03-12T05:32:06;2.60;99.90
11838;DHT22;5978;51.020;6.764;2023-03-12T05:34:32;2.60;99.90
11838;DHT22;5978;51.020;6.764;2023-03-12T05:36:58;2.70;99.90
11838;DHT22;5978;51.020;6.764;2023-03-12T05:39:26;2.60;99.90
11838;DHT22;5978;51.020;6.764;2023-03-12T05:41:52;2.60;99.90
11838;DHT22;5978;51.020;6.764;2023-03-12T05:44:22;2.60;99.90
11838;DHT22;5978;51.020;6.764;2023-03-12T05:46:48;2.50;99.90
11838;DHT22;5978;51.020;6.764;2023-03-12T05:49:13;2.50;99.90
11838;DHT22;5978;51.020;6.764;2023-03-12T05:51:39;2.50;99.90
11838;DHT22;5978;51.020;6.764;2023-03-12T05:54:04;2.50;99.90
11838;DHT22;5978;51.020;6.764;2023-03-12T05:56:30;2.50;99.90
11838;DHT22;5978;51.020;6.764;2023-03-12T05:58:56;2.50;99.90
11838;DHT22;5978;51.020;6.764;2023-03-12T06:01:24;2.50;99.90
11838;DHT22;5978;51.020;6.764;2023-03-12T06:03:50;2.50;99.90
11838;DHT22;5978;51.020;6.764;2023-03-12T06:06:17;2.50;99.90
11838;DHT22;5978;51.020;6.764;2023-03-12T06:08:42;2.50;99.90
11838;DHT22;5978;51.020;6.764;2023-03-12T06:11:08;2.50;99.90
11838;DHT22;5978;51.020;6.764;2023-03-12T06:13:34;2.60;99.90
11838;DHT22;5978;51.020;6.764;2023-03-12T06:16:05;2.60;99.90
11838;DHT22;5978;51.020;6.764;2023-03-12T06:18:33;2.60;99.90
11838;DHT22;5978;51.020;6.764;2023-03-12T06:21:14;2.50;99.90
11838;DHT22;5978;51.020;6.764;2023-03-12T06:23:41;2.50;99.90
11838;DHT22;5978;51.020;6.764;2023-03-12T06:26:07;2.50;99.90
11838;DHT22;5978;51.020;6.764;2023-03-12T06:28:33;2.50;99.90
11838;DHT22;5978;51.020;6.764;2023-03-12T06:30:59;2.60;99.90
11838;DHT22;5978;51.020;6.764;2023-03-12T06:33:25;2.60;99.90
11838;DHT22;5978;51.020;6.764;2023-03-12T06:35:58;2.60;99.90
11838;DHT22;5978;51.020;6.764;2023-03-12T06:38:24;2.60;99.90
11838;DHT22;5978;51.020;6.764;2023-03-12T06:40:58;2.60;99.90
11838;DHT22;5978;51.020;6.764;2023-03-12T06:43:25;2.60;99.90
11838;DHT22;5978;51.020;6.764;2023-03-12T06:45:52;2.60;99.90
11838;DHT22;5978;51.020;6.764;2023-03-12T06:48:18;2.60;99.90
11838;DHT22;5978;51.020;6.764;2023-03-12T06:50:44;2.70;99.90
11838;DHT22;5978;51.020;6.764;2023-03-12T06:53:10;2.70;99.90
11838;DHT22;5978;51.020;6.764;2023-03-12T06:55:35;2.80;99.90
11838;DHT22;5978;51.020;6.764;2023-03-12T06:58:01;2.80;99.90
11838;DHT22;5978;51.020;6.764;2023-03-12T07:00:29;2.80;99.90
11838;DHT22;5978;51.020;6.764;2023-03-12T07:02:54;2.80;99.90
11838;DHT22;5978;51.020;6.764;2023-03-12T07:05:22;2.90;99.90
11838;DHT22;5978;51.020;6.764;2023-03-12T07:07:48;2.90;99.90
11838;DHT22;5978;51.020;6.764;2023-03-12T07:10:13;3.00;99.90
11838;DHT22;5978;51.020;6.764;2023-03-12T07:12:39;3.10;99.90
11838;DHT22;5978;51.020;6.764;2023-03-12T07:15:05;3.10;99.90
11838;DHT22;5978;51.020;6.764;2023-03-12T07:17:31;3.10;99.90
11838;DHT22;5978;51.020;6.764;2023-03-12T07:19:56;3.10;99.90
11838;DHT22;5978;51.020;6.764;2023-03-12T07:22:22;3.10;99.90
11838;DHT22;5978;51.020;6.764;2023-03-12T07:24:47;3.20;99.90
11838;DHT22;5978;51.020;6.764;2023-03-12T07:27:13;3.30;99.90
11838;DHT22;5978;51.020;6.764;2023-03-12T07:29:39;3.20;99.90
11838;DHT22;5978;51.020;6.764;2023-03-12T07:32:04;3.30;99.90
11838;DHT22;5978;51.020;6.764;2023-03-12T07:34:30;3.30;99.90
11838;DHT22;5978;51.020;6.764;2023-03-12T07:36:56;3.30;99.90
11838;DHT22;5978;51.020;6.764;2023-03-12T07:39:21;3.30;99.90
11838;DHT22;5978;51.020;6.764;2023-03-12T07:41:47;3.30;99.90
11838;DHT22;5978;51.020;6.764;2023-03-12T07:44:12;3.40;99.90
11838;DHT22;5978;51.020;6.764;2023-03-12T07:46:38;3.30;99.90
11838;DHT22;5978;51.020;6.764;2023-03-12T07:49:03;3.40;99.90
11838;DHT22;5978;51.020;6.764;2023-03-12T07:51:29;3.40;99.90
11838;DHT22;5978;51.020;6.764;2023-03-12T07:53:55;3.40;99.90
11838;DHT22;5978;51.020;6.764;2023-03-12T07:56:21;3.40;99.90
11838;DHT22;5978;51.020;6.764;2023-03-12T07:58:46;3.50;99.90
11838;DHT22;5978;51.020;6.764;2023-03-12T08:01:12;3.50;99.90
11838;DHT22;5978;51.020;6.764;2023-03-12T08:03:38;3.60;99.90
11838;DHT22;5978;51.020;6.764;2023-03-12T08:06:04;3.70;99.90
11838;DHT22;5978;51.020;6.764;2023-03-12T08:08:30;3.80;99.90
11838;DHT22;5978;51.020;6.764;2023-03-12T08:10:57;3.80;99.90
11838;DHT22;5978;51.020;6.764;2023-03-12T08:13:23;3.80;99.90
11838;DHT22;5978;51.020;6.764;2023-03-12T08:15:50;3.70;99.90
11838;DHT22;5978;51.020;6.764;2023-03-12T08:18:16;3.70;99.90
11838;DHT22;5978;51.020;6.764;2023-03-12T08:20:42;3.70;99.90
11838;DHT22;5978;51.020;6.764;2023-03-12T08:23:08;3.80;99.90
11838;DHT22;5978;51.020;6.764;2023-03-12T08:25:34;3.80;99.90
11838;DHT22;5978;51.020;6.764;2023-03-12T08:28:01;3.80;99.90
11838;DHT22;5978;51.020;6.764;2023-03-12T08:30:28;3.90;99.90
11838;DHT22;5978;51.020;6.764;2023-03-12T08:32:53;3.90;99.90
11838;DHT22;5978;51.020;6.764;2023-03-12T08:35:20;3.90;99.90
11838;DHT22;5978;51.020;6.764;2023-03-12T08:37:46;3.90;99.90
11838;DHT22;5978;51.020;6.764;2023-03-12T08:43:33;3.90;99.90
11838;DHT22;5978;51.020;6.764;2023-03-12T08:46:01;4.00;99.90
11838;DHT22;5978;51.020;6.764;2023-03-12T08:48:31;4.00;99.90
11838;DHT22;5978;51.020;6.764;2023-03-12T08:50:58;4.00;99.90
11838;DHT22;5978;51.020;6.764;2023-03-12T08:53:24;4.00;99.90
11838;DHT22;5978;51.020;6.764;2023-03-12T08:55:53;4.10;99.90
11838;DHT22;5978;51.020;6.764;2023-03-12T08:58:20;4.20;99.90
11838;DHT22;5978;51.020;6.764;2023-03-12T09:00:45;4.20;99.90
11838;DHT22;5978;51.020;6.764;2023-03-12T09:03:11;4.10;99.90
11838;DHT22;5978;51.020;6.764;2023-03-12T09:05:40;4.10;99.90
11838;DHT22;5978;51.020;6.764;2023-03-12T09:08:06;4.00;99.90
11838;DHT22;5978;51.020;6.764;2023-03-12T09:10:32;4.10;99.90
11838;DHT22;5978;51.020;6.764;2023-03-12T09:12:58;4.20;99.90
11838;DHT22;5978;51.020;6.764;2023-03-12T09:15:23;4.20;99.90
11838;DHT22;5978;51.020;6.764;2023-03-12T09:17:50;4.20;99.90
11838;DHT22;5978;51.020;6.764;2023-03-12T09:20:16;4.20;99.90
11838;DHT22;5978;51.020;6.764;2023-03-12T09:22:42;4.30;99.90
11838;DHT22;5978;51.020;6.764;2023-03-12T09:25:09;4.30;99.90
11838;DHT22;5978;51.020;6.764;2023-03-12T09:27:40;4.40;99.90
11838;DHT22;5978;51.020;6.764;2023-03-12T09:30:07;4.40;99.90
11838;DHT22;5978;51.020;6.764;2023-03-12T09:32:34;4.50;99.90
11838;DHT22;5978;51.020;6.764;2023-03-12T09:34:59;4.50;99.90
11838;DHT22;5978;51.020;6.764;2023-03-12T09:37:25;4.50;99.90
11838;DHT22;5978;51.020;6.764;2023-03-12T09:39:52;4.60;99.90
11838;DHT22;5978;51.020;6.764;2023-03-12T09:42:39;4.60;99.90
11838;DHT22;5978;51.020;6.764;2023-03-12T09:45:07;4.70;99.90
11838;DHT22;5978;51.020;6.764;2023-03-12T09:47:46;4.80;99.90
11838;DHT22;5978;51.020;6.764;2023-03-12T09:50:34;4.80;99.90
11838;DHT22;5978;51.020;6.764;2023-03-12T09:55:44;4.80;99.90
11838;DHT22;5978;51.020;6.764;2023-03-12T09:58:13;4.90;99.90
11838;DHT22;5978;51.020;6.764;2023-03-12T10:00:41;4.90;99.90
11838;DHT22;5978;51.020;6.764;2023-03-12T10:11:38;5.10;99.90
11838;DHT22;5978;51.020;6.764;2023-03-12T10:14:21;5.30;99.90
11838;DHT22;5978;51.020;6.764;2023-03-12T10:17:42;5.30;99.90
11838;DHT22;5978;51.020;6.764;2023-03-12T10:19:49;5.40;99.90
11838;DHT22;5978;51.020;6.764;2023-03-12T10:22:31;5.50;99.90
11838;DHT22;5978;51.020;6.764;2023-03-12T10:25:14;5.60;99.90
11838;DHT22;5978;51.020;6.764;2023-03-12T10:27:40;5.60;99.90
11838;DHT22;5978;51.020;6.764;2023-03-12T10:30:18;5.70;99.90
11838;DHT22;5978;51.020;6.764;2023-03-12T10:32:48;5.90;99.90
11838;DHT22;5978;51.020;6.764;2023-03-12T10:35:20;5.90;99.90
11838;DHT22;5978;51.020;6.764;2023-03-12T10:37:56;6.00;99.90
11838;DHT22;5978;51.020;6.764;2023-03-12T10:40:28;6.00;99.90
11838;DHT22;5978;51.020;6.764;2023-03-12T10:42:54;6.10;99.90
11838;DHT22;5978;51.020;6.764;2023-03-12T10:45:33;6.20;99.90
11838;DHT22;5978;51.020;6.764;2023-03-12T10:48:06;6.40;99.90
11838;DHT22;5978;51.020;6.764;2023-03-12T10:50:35;6.50;99.90
11838;DHT22;5978;51.020;6.764;2023-03-12T10:53:20;6.60;99.90
11838;DHT22;5978;51.020;6.764;2023-03-12T10:58:39;6.70;99.90
11838;DHT22;5978;51.020;6.764;2023-03-12T11:03:41;6.80;99.90
11838;DHT22;5978;51.020;6.764;2023-03-12T11:06:08;7.00;99.90
11838;DHT22;5978;51.020;6.764;2023-03-12T11:08:40;7.20;99.90
11838;DHT22;5978;51.020;6.764;2023-03-12T11:11:08;7.70;99.90
11838;DHT22;5978;51.020;6.764;2023-03-12T11:13:39;8.10;99.90
11838;DHT22;5978;51.020;6.764;2023-03-12T11:18:55;8.50;99.90
11838;DHT22;5978;51.020;6.764;2023-03-12T11:21:22;8.60;99.90
11838;DHT22;5978;51.020;6.764;2023-03-12T11:26:46;8.80;99.90
11838;DHT22;5978;51.020;6.764;2023-03-12T11:29:26;8.90;99.90
11838;DHT22;5978;51.020;6.764;2023-03-12T11:34:30;9.20;99.90
11838;DHT22;5978;51.020;6.764;2023-03-12T11:37:09;9.30;99.90
11838;DHT22;5978;51.020;6.764;2023-03-12T11:39:50;9.40;99.90
11838;DHT22;5978;51.020;6.764;2023-03-12T11:56:15;9.90;99.90
11838;DHT22;5978;51.020;6.764;2023-03-12T11:59:05;10.00;99.90
11838;DHT22;5978;51.020;6.764;2023-03-12T12:04:12;10.10;99.90
11838;DHT22;5978;51.020;6.764;2023-03-12T12:07:14;10.30;99.90
11838;DHT22;5978;51.020;6.764;2023-03-12T12:10:02;10.60;99.90
11838;DHT22;5978;51.020;6.764;2023-03-12T12:18:57;12.20;99.90
11838;DHT22;5978;51.020;6.764;2023-03-12T12:27:21;12.70;99.90
11838;DHT22;5978;51.020;6.764;2023-03-12T12:35:55;12.60;99.90
11838;DHT22;5978;51.020;6.764;2023-03-12T12:38:28;12.40;99.90
11838;DHT22;5978;51.020;6.764;2023-03-12T12:41:17;12.30;99.90
11838;DHT22;5978;51.020;6.764;2023-03-12T12:43:47;12.30;99.90
11838;DHT22;5978;51.020;6.764;2023-03-12T12:46:17;12.30;99.90
11838;DHT22;5978;51.020;6.764;2023-03-12T12:48:54;12.60;99.90
11838;DHT22;5978;51.020;6.764;2023-03-12T12:51:24;13.00;99.90
11838;DHT22;5978;51.020;6.764;2023-03-12T12:54:10;13.40;99.90
11838;DHT22;5978;51.020;6.764;2023-03-12T12:56:57;13.90;99.90
11838;DHT22;5978;51.020;6.764;2023-03-12T12:59:51;14.40;99.90
11838;DHT22;5978;51.020;6.764;2023-03-12T13:02:24;14.30;99.90
11838;DHT22;5978;51.020;6.764;2023-03-12T13:04:56;13.90;99.90
11838;DHT22;5978;51.020;6.764;2023-03-12T13:09:51;13.50;99.90
11838;DHT22;5978;51.020;6.764;2023-03-12T13:12:41;13.20;99.90
11838;DHT22;5978;51.020;6.764;2023-03-12T13:20:23;13.20;99.90
11838;DHT22;5978;51.020;6.764;2023-03-12T13:25:44;13.20;99.90
11838;DHT22;5978;51.020;6.764;2023-03-12T13:30:57;13.10;99.90
11838;DHT22;5978;51.020;6.764;2023-03-12T13:33:44;13.10;99.90
11838;DHT22;5978;51.020;6.764;2023-03-12T13:39:00;13.10;99.90
11838;DHT22;5978;51.020;6.764;2023-03-12T13:46:56;12.70;99.90
11838;DHT22;5978;51.020;6.764;2023-03-12T13:49:23;12.60;99.90
11838;DHT22;5978;51.020;6.764;2023-03-12T13:51:59;12.50;99.90
11838;DHT22;5978;51.020;6.764;2023-03-12T13:54:32;12.70;99.90
11838;DHT22;5978;51.020;6.764;2023-03-12T13:57:09;12.70;99.90
11838;DHT22;5978;51.020;6.764;2023-03-12T13:59:42;12.90;99.90
11838;DHT22;5978;51.020;6.764;2023-03-12T14:02:23;13.30;99.90
11838;DHT22;5978;51.020;6.764;2023-03-12T14:04:49;13.60;99.90
11838;DHT22;5978;51.020;6.764;2023-03-12T14:10:35;13.40;99.90
11838;DHT22;5978;51.020;6.764;2023-03-12T14:16:15;13.30;99.90
11838;DHT22;5978;51.020;6.764;2023-03-12T14:18:44;13.20;99.90
11838;DHT22;5978;51.020;6.764;2023-03-12T14:21:14;13.30;99.90
11838;DHT22;5978;51.020;6.764;2023-03-12T14:23:51;13.20;99.90
11838;DHT22;5978;51.020;6.764;2023-03-12T14:26:22;13.10;99.90
11838;DHT22;5978;51.020;6.764;2023-03-12T14:29:05;13.00;99.90
11838;DHT22;5978;51.020;6.764;2023-03-12T14:31:32;13.00;99.90
11838;DHT22;5978;51.020;6.764;2023-03-12T14:34:21;12.90;99.90
11838;DHT22;5978;51.020;6.764;2023-03-12T14:42:06;12.80;99.90
11838;DHT22;5978;51.020;6.764;2023-03-12T14:44:35;12.80;99.90
11838;DHT22;5978;51.020;6.764;2023-03-12T14:47:09;12.80;99.90
11838;DHT22;5978;51.020;6.764;2023-03-12T14:49:44;12.80;99.90
11838;DHT22;5978;51.020;6.764;2023-03-12T14:52:12;12.80;99.90
11838;DHT22;5978;51.020;6.764;2023-03-12T14:54:37;12.80;99.90
11838;DHT22;5978;51.020;6.764;2023-03-12T14:57:04;12.80;99.90
11838;DHT22;5978;51.020;6.764;2023-03-12T14:59:32;13.00;99.90
11838;DHT22;5978;51.020;6.764;2023-03-12T15:02:19;13.10;99.90
11838;DHT22;5978;51.020;6.764;2023-03-12T15:04:47;13.50;99.90
11838;DHT22;5978;51.020;6.764;2023-03-12T15:07:17;13.60;99.90
11838;DHT22;5978;51.020;6.764;2023-03-12T15:09:47;13.30;99.90
11838;DHT22;5978;51.020;6.764;2023-03-12T15:12:20;13.10;99.90
11838;DHT22;5978;51.020;6.764;2023-03-12T15:14:47;13.00;99.90
11838;DHT22;5978;51.020;6.764;2023-03-12T15:17:21;12.90;99.90
11838;DHT22;5978;51.020;6.764;2023-03-12T15:19:48;12.80;99.90
11838;DHT22;5978;51.020;6.764;2023-03-12T15:22:20;12.90;99.90
11838;DHT22;5978;51.020;6.764;2023-03-12T15:24:46;13.20;99.90
11838;DHT22;5978;51.020;6.764;2023-03-12T15:27:31;13.80;99.90
11838;DHT22;5978;51.020;6.764;2023-03-12T15:29:58;14.40;99.90
11838;DHT22;5978;51.020;6.764;2023-03-12T15:32:25;15.00;99.90
11838;DHT22;5978;51.020;6.764;2023-03-12T15:34:54;14.90;99.90
11838;DHT22;5978;51.020;6.764;2023-03-12T15:37:34;15.10;99.90
11838;DHT22;5978;51.020;6.764;2023-03-12T15:40:26;14.70;99.90
11838;DHT22;5978;51.020;6.764;2023-03-12T15:42:51;14.30;99.90
11838;DHT22;5978;51.020;6.764;2023-03-12T15:47:53;13.50;99.90
11838;DHT22;5978;51.020;6.764;2023-03-12T15:50:25;13.50;99.90
11838;DHT22;5978;51.020;6.764;2023-03-12T15:55:55;13.30;99.90
11838;DHT22;5978;51.020;6.764;2023-03-12T15:58:30;13.20;99.90
11838;DHT22;5978;51.020;6.764;2023-03-12T16:01:28;13.20;99.90
11838;DHT22;5978;51.020;6.764;2023-03-12T16:03:54;13.00;99.90
11838;DHT22;5978;51.020;6.764;2023-03-12T16:06:22;13.00;99.90
11838;DHT22;5978;51.020;6.764;2023-03-12T16:08:54;12.90;99.90
11838;DHT22;5978;51.020;6.764;2023-03-12T16:11:23;12.70;99.90
11838;DHT22;5978;51.020;6.764;2023-03-12T16:13:51;12.80;99.90
11838;DHT22;5978;51.020;6.764;2023-03-12T16:16:17;12.90;99.90
11838;DHT22;5978;51.020;6.764;2023-03-12T16:18:43;13.00;99.90
11838;DHT22;5978;51.020;6.764;2023-03-12T16:21:09;12.80;99.90
11838;DHT22;5978;51.020;6.764;2023-03-12T16:23:35;12.60;99.90
11838;DHT22;5978;51.020;6.764;2023-03-12T16:26:02;12.50;99.90
11838;DHT22;5978;51.020;6.764;2023-03-12T16:28:29;12.40;99.90
11838;DHT22;5978;51.020;6.764;2023-03-12T16:30:55;12.30;99.90
11838;DHT22;5978;51.020;6.764;2023-03-12T16:33:22;12.20;99.90
11838;DHT22;5978;51.020;6.764;2023-03-12T16:35:48;12.00;99.90
11838;DHT22;5978;51.020;6.764;2023-03-12T16:38:14;12.10;99.90
11838;DHT22;5978;51.020;6.764;2023-03-12T16:40:46;12.00;99.90
11838;DHT22;5978;51.020;6.764;2023-03-12T16:43:23;11.90;99.90
11838;DHT22;5978;51.020;6.764;2023-03-12T16:45:51;11.90;99.90
11838;DHT22;5978;51.020;6.764;2023-03-12T16:48:19;11.80;99.90
11838;DHT22;5978;51.020;6.764;2023-03-12T16:50:48;11.80;99.90
11838;DHT22;5978;51.020;6.764;2023-03-12T16:53:14;11.80;99.90
11838;DHT22;5978;51.020;6.764;2023-03-12T16:55:47;11.70;99.90
11838;DHT22;5978;51.020;6.764;2023-03-12T16:58:15;11.70;99.90
11838;DHT22;5978;51.020;6.764;2023-03-12T17:00:41;11.70;99.90
11838;DHT22;5978;51.020;6.764;2023-03-12T17:03:15;11.70;99.90
11838;DHT22;5978;51.020;6.764;2023-03-12T17:05:42;11.60;99.90
11838;DHT22;5978;51.020;6.764;2023-03-12T17:08:08;11.60;99.90
11838;DHT22;5978;51.020;6.764;2023-03-12T17:10:33;11.60;99.90
11838;DHT22;5978;51.020;6.764;2023-03-12T17:13:00;11.60;99.90
11838;DHT22;5978;51.020;6.764;2023-03-12T17:15:27;11.50;99.90
11838;DHT22;5978;51.020;6.764;2023-03-12T17:17:55;11.50;99.90
11838;DHT22;5978;51.020;6.764;2023-03-12T17:20:22;11.50;99.90
11838;DHT22;5978;51.020;6.764;2023-03-12T17:22:48;11.40;99.90
11838;DHT22;5978;51.020;6.764;2023-03-12T17:25:26;11.40;99.90
11838;DHT22;5978;51.020;6.764;2023-03-12T17:27:52;11.40;99.90
11838;DHT22;5978;51.020;6.764;2023-03-12T17:30:18;11.40;99.90
11838;DHT22;5978;51.020;6.764;2023-03-12T17:32:45;11.30;99.90
11838;DHT22;5978;51.020;6.764;2023-03-12T17:35:13;11.30;99.90
11838;DHT22;5978;51.020;6.764;2023-03-12T17:37:39;11.40;99.90
11838;DHT22;5978;51.020;6.764;2023-03-12T17:40:06;11.30;99.90
11838;DHT22;5978;51.020;6.764;2023-03-12T17:42:37;11.30;99.90
11838;DHT22;5978;51.020;6.764;2023-03-12T17:45:05;11.30;99.90
11838;DHT22;5978;51.020;6.764;2023-03-12T17:47:31;11.30;99.90
11838;DHT22;5978;51.020;6.764;2023-03-12T17:49:57;11.30;99.90
11838;DHT22;5978;51.020;6.764;2023-03-12T17:52:23;11.20;99.90
11838;DHT22;5978;51.020;6.764;2023-03-12T17:54:49;11.30;99.90